createdAt,value
2022-08-22T00:01:40.458Z,99910.42
2022-08-22T00:06:45.723Z,99914.51
2022-08-22T00:11:52.787Z,99910.27
2022-08-22T00:17:00.254Z,99910.29
2022-08-22T00:22:05.498Z,99916.12
2022-08-22T00:27:12.264Z,99918.05
2022-08-22T00:32:17.638Z,99923.80
2022-08-22T00:37:25.961Z,99929.29
2022-08-22T00:42:32.385Z,99929.10
2022-08-22T00:47:36.017Z,99930.64
2022-08-22T00:52:41.296Z,99935.90
2022-08-22T00:57:46.520Z,99935.40
2022-08-22T01:03:02.701Z,99943.27
2022-08-22T01:08:08.861Z,99942.23
2022-08-22T01:13:13.139Z,99945.64
2022-08-22T01:18:18.707Z,99945.52
2022-08-22T01:23:23.970Z,99945.26
2022-08-22T01:28:29.296Z,99945.31
2022-08-22T01:33:48.214Z,99943.43
2022-08-22T01:38:53.532Z,99943.96
2022-08-22T01:44:00.748Z,99944.05
2022-08-22T01:49:06.402Z,99943.45
2022-08-22T01:54:12.844Z,99943.30
2022-08-22T01:59:33.742Z,99945.21
2022-08-22T02:04:39.953Z,99950.55
2022-08-22T02:09:48.347Z,99951.09
2022-08-22T02:14:50.634Z,99949.35
2022-08-22T02:19:56.068Z,99950.13
2022-08-22T02:25:01.317Z,99948.04
2022-08-22T02:30:06.618Z,99954.31
2022-08-22T02:35:11.964Z,99952.75
2022-08-22T02:40:20.208Z,99957.28
2022-08-22T02:45:26.449Z,99950.75
2022-08-22T02:50:35.536Z,99952.86
2022-08-22T02:55:42.257Z,99955.79
2022-08-22T03:00:49.666Z,99954.66
2022-08-22T03:06:01.116Z,99956.17
2022-08-22T03:11:08.542Z,99961.55
2022-08-22T03:16:15.166Z,99964.68
2022-08-22T03:21:17.626Z,99968.60
2022-08-22T03:26:22.896Z,99972.56
2022-08-22T03:31:25.788Z,99971.06
2022-08-22T03:36:29.605Z,99977.39
2022-08-22T03:41:52.428Z,99980.19
2022-08-22T03:47:07.280Z,99987.04
2022-08-22T03:52:19.789Z,99986.29
2022-08-22T03:57:41.254Z,99984.04
2022-08-22T04:02:47.080Z,99976.17
2022-08-22T04:07:52.473Z,99973.63
2022-08-22T04:13:03.451Z,99976.38
2022-08-22T04:18:17.254Z,99977.63
2022-08-22T04:23:27.315Z,99982.96
2022-08-22T04:28:36.314Z,99985.41
2022-08-22T04:33:39.562Z,99990.48
2022-08-22T04:38:44.450Z,99993.65
2022-08-22T04:43:49.755Z,99995.94
2022-08-22T04:48:55.777Z,99996.97
2022-08-22T04:53:59.492Z,99998.05
2022-08-22T04:59:07.615Z,100004.80
2022-08-22T05:04:15.035Z,100001.64
2022-08-22T05:09:21.555Z,100009.67
2022-08-22T05:14:28.246Z,100011.86
2022-08-22T05:19:33.886Z,100007.40
2022-08-22T05:24:39.397Z,100016.02
2022-08-22T05:29:44.784Z,100020.73
2022-08-22T05:34:48.346Z,100020.38
2022-08-22T05:39:57.857Z,100019.58
2022-08-22T05:45:01.740Z,100023.64
2022-08-22T05:50:07.155Z,100022.34
2022-08-22T05:55:11.576Z,100019.95
2022-08-22T06:00:17.465Z,100027.48
2022-08-22T06:05:26.737Z,100029.66
2022-08-22T06:10:35.985Z,100031.61
2022-08-22T06:15:45.058Z,100030.16
2022-08-22T06:20:50.070Z,100029.23
2022-08-22T06:25:53.931Z,100033.05
2022-08-22T06:30:57.465Z,100038.67
2022-08-22T06:36:06.175Z,100035.80
2022-08-22T06:41:08.922Z,100034.66
2022-08-22T06:46:14.757Z,100040.82
2022-08-22T06:51:19.277Z,100039.10
2022-08-22T06:56:24.296Z,100036.89
2022-08-22T07:01:31.344Z,100046.75
2022-08-22T07:06:36.570Z,100052.37
2022-08-22T07:11:39.946Z,100054.09
2022-08-22T07:16:45.262Z,100057.34
2022-08-22T07:21:48.044Z,100057.46
2022-08-22T07:26:50.345Z,100061.88
2022-08-22T07:32:03.418Z,100060.27
2022-08-22T07:37:08.079Z,100066.17
2022-08-22T07:42:14.295Z,100066.81
2022-08-22T07:47:26.109Z,100065.02
2022-08-22T07:52:32.357Z,100074.55
2022-08-22T07:57:37.287Z,100077.36
2022-08-22T08:02:44.573Z,100073.19
2022-08-22T08:07:47.902Z,100072.20
2022-08-22T08:12:56.117Z,100076.65
2022-08-22T08:18:08.678Z,100076.41
2022-08-22T08:23:12.598Z,100074.54
2022-08-22T08:28:18.301Z,100077.36
2022-08-22T08:33:24.788Z,100073.68
2022-08-22T08:38:31.535Z,100073.04
2022-08-22T08:43:40.456Z,100074.02
2022-08-22T08:48:45.819Z,100070.17
2022-08-22T08:53:50.995Z,100070.98
2022-08-22T08:59:02.421Z,100074.39
2022-08-22T09:04:16.074Z,100066.30
2022-08-22T09:09:20.284Z,100071.84
2022-08-22T09:14:26.963Z,100062.77
2022-08-22T09:19:32.518Z,100061.37
2022-08-22T09:24:37.811Z,100061.37
2022-08-22T09:29:55.164Z,100064.09
2022-08-22T09:35:05.856Z,100066.66
2022-08-22T09:40:17.479Z,100064.91
2022-08-22T09:45:34.589Z,100072.52
2022-08-22T09:50:41.254Z,100071.02
2022-08-22T09:55:44.970Z,100073.08
2022-08-22T10:00:55.495Z,100070.64
2022-08-22T10:06:00.756Z,100078.96
2022-08-22T10:11:09.642Z,100076.02
2022-08-22T10:16:12.430Z,100073.92
2022-08-22T10:21:18.587Z,100078.27
2022-08-22T10:26:29.384Z,100082.06
2022-08-22T10:31:34.906Z,100087.77
2022-08-22T10:36:50.383Z,100090.96
2022-08-22T10:41:54.622Z,100084.42
2022-08-22T10:47:00.198Z,100090.05
2022-08-22T10:52:15.234Z,100087.91
2022-08-22T10:57:21.515Z,100090.26
2022-08-22T11:02:35.214Z,100085.56
2022-08-22T11:07:44.580Z,100085.98
2022-08-22T11:12:54.129Z,100084.59
2022-08-22T11:17:57.953Z,100083.14
2022-08-22T11:23:13.238Z,100086.13
2022-08-22T11:28:25.250Z,100084.20
2022-08-22T11:33:46.341Z,100089.98
2022-08-22T11:38:52.741Z,100094.73
2022-08-22T11:43:58.381Z,100095.39
2022-08-22T11:49:09.110Z,100102.14
2022-08-22T11:54:19.640Z,100100.09
2022-08-22T11:59:40.981Z,100096.77
2022-08-22T12:04:50.985Z,100095.33
2022-08-22T12:09:59.199Z,100099.07
2022-08-22T12:15:04.665Z,100096.78
2022-08-22T12:20:16.259Z,100092.86
2022-08-22T12:25:20.264Z,100092.35
2022-08-22T12:30:31.196Z,100095.48
2022-08-22T12:35:36.508Z,100091.27
2022-08-22T12:40:44.721Z,100093.92
2022-08-22T12:45:59.824Z,100092.08
2022-08-22T12:51:17.445Z,100089.79
2022-08-22T12:56:23.133Z,100086.09
2022-08-22T13:01:34.222Z,100088.44
2022-08-22T13:06:37.009Z,100088.34
2022-08-22T13:11:41.344Z,100081.16
2022-08-22T13:16:48.868Z,100079.16
2022-08-22T13:21:59.067Z,100082.46
2022-08-22T13:27:05.760Z,100079.21
2022-08-22T13:32:11.184Z,100076.67
2022-08-22T13:37:24.347Z,100079.23
2022-08-22T13:42:30.933Z,100074.92
2022-08-22T13:47:35.781Z,100076.84
2022-08-22T13:52:52.270Z,100082.45
2022-08-22T13:58:00.468Z,100084.14
2022-08-22T14:03:08.083Z,100086.70
2022-08-22T14:08:18.434Z,100075.81
2022-08-22T14:13:30.773Z,100063.98
2022-08-22T14:18:46.199Z,100060.75
2022-08-22T14:23:52.177Z,100054.98
2022-08-22T14:28:57.185Z,100056.04
2022-08-22T14:34:02.289Z,100048.90
2022-08-22T14:39:24.631Z,100044.92
2022-08-22T14:44:29.923Z,100043.27
2022-08-22T14:49:48.181Z,100050.14
2022-08-22T14:55:06.225Z,100049.34
2022-08-22T15:00:12.499Z,100057.23
2022-08-22T15:05:18.050Z,100055.68
2022-08-22T15:10:23.001Z,100051.67
2022-08-22T15:15:28.562Z,100050.64
2022-08-22T15:20:36.278Z,100048.83
2022-08-22T15:25:42.676Z,100047.95
2022-08-22T15:31:09.315Z,100049.17
2022-08-22T15:36:15.795Z,100063.57
2022-08-22T15:41:22.091Z,100067.54
2022-08-22T15:46:29.637Z,100068.84
2022-08-22T15:51:36.422Z,100068.86
2022-08-22T15:56:42.913Z,100066.77
2022-08-22T16:01:50.897Z,100063.36
2022-08-22T16:06:58.059Z,100059.46
2022-08-22T16:12:02.024Z,100055.91
2022-08-22T16:17:04.316Z,100055.09
2022-08-22T16:22:07.831Z,100048.84
2022-08-22T16:27:13.130Z,100043.10
2022-08-22T16:32:23.018Z,100039.30
2022-08-22T16:37:25.297Z,100042.67
2022-08-22T16:42:34.787Z,100052.07
2022-08-22T16:47:52.804Z,100049.75
2022-08-22T16:53:05.343Z,100049.84
2022-08-22T16:58:10.665Z,100048.64
2022-08-22T17:03:13.969Z,100051.98
2022-08-22T17:08:25.503Z,100053.36
2022-08-22T17:13:32.771Z,100055.65
2022-08-22T17:18:44.898Z,100062.04
2022-08-22T17:23:50.144Z,100064.27
2022-08-22T17:28:55.439Z,100068.82
2022-08-22T17:34:01.546Z,100067.01
2022-08-22T17:39:06.813Z,100075.46
2022-08-22T17:44:12.026Z,100082.37
2022-08-22T17:49:19.546Z,100080.02
2022-08-22T17:54:29.827Z,100079.50
2022-08-22T17:59:39.728Z,100085.05
2022-08-22T18:04:45.618Z,100087.55
2022-08-22T18:09:53.675Z,100097.10
2022-08-22T18:14:59.664Z,100109.02
2022-08-22T18:20:06.213Z,100110.78
2022-08-22T18:25:11.542Z,100112.12
2022-08-22T18:30:17.198Z,100112.23
2022-08-22T18:35:24.990Z,100123.46
2022-08-22T18:40:27.275Z,100119.46
2022-08-22T18:45:44.117Z,100116.95
2022-08-22T18:50:47.543Z,100117.57
2022-08-22T18:55:55.968Z,100119.36
2022-08-22T19:01:01.267Z,100120.16
2022-08-22T19:06:03.588Z,100117.41
2022-08-22T19:11:15.043Z,100111.14
2022-08-22T19:16:17.370Z,100109.48
2022-08-22T19:21:25.442Z,100109.55
2022-08-22T19:26:30.744Z,100105.80
2022-08-22T19:31:35.066Z,100103.98
2022-08-22T19:36:37.965Z,100107.88
2022-08-22T19:41:43.948Z,100111.66
2022-08-22T19:46:58.651Z,100108.77
2022-08-22T19:52:11.752Z,100104.98
2022-08-22T19:57:34.272Z,100115.15
2022-08-22T20:02:51.346Z,100117.80
2022-08-22T20:07:56.588Z,100130.54
2022-08-22T20:13:00.822Z,100125.55
2022-08-22T20:23:29.393Z,100122.55
2022-08-22T20:28:35.553Z,100118.21
2022-08-22T20:33:39.775Z,100115.95
2022-08-22T20:38:55.733Z,100113.15
2022-08-22T20:44:18.818Z,100115.52
2022-08-22T20:49:23.577Z,100112.64
2022-08-22T20:54:28.469Z,100105.70
2022-08-22T20:59:30.815Z,100109.02
2022-08-22T21:04:42.480Z,100104.71
2022-08-22T21:09:56.006Z,100099.80
2022-08-22T21:14:58.326Z,100095.14
2022-08-22T21:20:03.771Z,100096.97
2022-08-22T21:25:06.226Z,100104.05
2022-08-22T21:30:09.175Z,100092.55
2022-08-22T21:35:31.551Z,100089.56
2022-08-22T21:40:35.702Z,100080.31
2022-08-22T21:45:38.041Z,100075.41
2022-08-22T21:50:41.214Z,100068.27
2022-08-22T21:55:44.495Z,100066.14
2022-08-22T22:01:07.175Z,100065.84
2022-08-22T22:06:12.937Z,100064.38
2022-08-22T22:11:15.427Z,100058.48
2022-08-22T22:16:22.516Z,100059.03
2022-08-22T22:21:24.857Z,100053.20
2022-08-22T22:26:28.489Z,100047.51
2022-08-22T22:31:31.523Z,100039.30
2022-08-22T22:36:55.225Z,100047.10
2022-08-22T22:41:57.552Z,100050.83
2022-08-22T22:47:02.108Z,100054.31
2022-08-22T22:52:04.914Z,100051.58
2022-08-22T22:57:07.210Z,100046.91
2022-08-22T23:02:16.995Z,100044.63
2022-08-22T23:07:20.063Z,100036.98
2022-08-22T23:12:23.449Z,100039.91
2022-08-22T23:17:25.871Z,100036.10
2022-08-22T23:22:30.029Z,100031.48
2022-08-22T23:27:32.402Z,100019.06
2022-08-22T23:32:36.647Z,100018.02
2022-08-22T23:37:39.005Z,100020.66
2022-08-22T23:42:41.712Z,100023.17
2022-08-22T23:47:44.018Z,100025.02
2022-08-22T23:52:46.627Z,100029.15
2022-08-22T23:57:48.943Z,100026.16
